createdAt,value
2022-12-13T00:01:48.037Z,88.38
2022-12-13T00:04:16.826Z,88.47
2022-12-13T00:06:45.166Z,88.41
2022-12-13T00:09:15.101Z,88.34
2022-12-13T00:11:42.784Z,88.37
2022-12-13T00:14:13.931Z,88.04
2022-12-13T00:16:45.805Z,87.92
2022-12-13T00:19:14.220Z,87.97
2022-12-13T00:21:41.917Z,87.97
2022-12-13T00:24:09.626Z,88.04
2022-12-13T00:26:37.278Z,88.12
2022-12-13T00:29:07.104Z,88.00
2022-12-13T00:31:59.537Z,87.77
2022-12-13T00:34:24.810Z,87.81
2022-12-13T00:36:55.944Z,88.08
2022-12-13T00:39:23.626Z,87.92
2022-12-13T00:41:51.247Z,88.02
2022-12-13T00:44:19.821Z,87.89
2022-12-13T00:46:47.871Z,87.87
2022-12-13T00:49:15.772Z,87.21
2022-12-13T00:51:43.448Z,87.27
2022-12-13T00:54:11.707Z,87.07
2022-12-13T00:56:39.440Z,87.38
2022-12-13T00:59:07.204Z,87.53
2022-12-13T01:01:36.677Z,87.61
2022-12-13T01:04:05.818Z,87.48
2022-12-13T01:06:37.563Z,87.54
2022-12-13T01:09:15.084Z,87.56
2022-12-13T01:11:43.500Z,87.45
2022-12-13T01:14:11.260Z,87.86
2022-12-13T01:16:38.875Z,87.44
2022-12-13T01:19:06.659Z,87.18
2022-12-13T01:21:34.373Z,87.51
2022-12-13T01:24:04.220Z,87.66
2022-12-13T01:26:32.442Z,87.23
2022-12-13T01:29:00.208Z,87.53
2022-12-13T01:31:28.489Z,87.41
2022-12-13T01:33:56.724Z,87.68
2022-12-13T01:36:27.902Z,87.35
2022-12-13T01:38:58.672Z,87.60
2022-12-13T01:41:28.771Z,87.69
2022-12-13T01:44:03.623Z,87.56
2022-12-13T01:46:34.357Z,88.00
2022-12-13T01:49:19.569Z,88.04
2022-12-13T01:52:02.810Z,88.21
2022-12-13T01:54:35.428Z,88.22
2022-12-13T01:57:07.129Z,87.66
2022-12-13T01:59:37.971Z,87.39
2022-12-13T02:02:07.216Z,87.52
2022-12-13T02:04:48.571Z,87.34
2022-12-13T02:07:23.169Z,87.31
2022-12-13T02:09:56.386Z,87.50
2022-12-13T02:12:30.668Z,87.42
2022-12-13T02:15:07.862Z,87.79
2022-12-13T02:17:54.386Z,87.70
2022-12-13T02:20:30.784Z,87.67
2022-12-13T02:23:29.201Z,87.89
2022-12-13T02:26:21.713Z,87.49
2022-12-13T02:29:30.866Z,87.49
2022-12-13T02:32:00.613Z,87.19
2022-12-13T02:34:40.837Z,87.28
2022-12-13T02:37:29.421Z,87.27
2022-12-13T02:40:03.093Z,87.20
2022-12-13T02:42:56.815Z,87.22
2022-12-13T02:45:34.542Z,87.45
2022-12-13T02:48:05.430Z,87.57
2022-12-13T02:50:34.540Z,87.97
2022-12-13T02:53:03.226Z,87.79
2022-12-13T02:55:35.260Z,87.52
2022-12-13T02:58:02.955Z,87.24
2022-12-13T03:00:52.124Z,87.08
2022-12-13T03:03:30.216Z,87.18
2022-12-13T03:06:24.589Z,86.83
2022-12-13T03:09:16.509Z,86.98
2022-12-13T03:12:05.960Z,87.08
2022-12-13T03:14:37.571Z,87.01
2022-12-13T03:17:08.164Z,87.14
2022-12-13T03:19:36.027Z,87.26
2022-12-13T03:22:06.542Z,87.66
2022-12-13T03:24:34.176Z,87.52
2022-12-13T03:27:02.024Z,87.45
2022-12-13T03:29:30.034Z,87.42
2022-12-13T03:31:57.628Z,87.18
2022-12-13T03:34:25.235Z,87.15
2022-12-13T03:37:11.576Z,87.17
2022-12-13T03:39:39.529Z,87.15
2022-12-13T03:42:07.274Z,87.00
2022-12-13T03:44:34.856Z,86.61
2022-12-13T03:47:02.511Z,86.80
2022-12-13T03:49:35.699Z,86.80
2022-12-13T03:52:03.545Z,87.04
2022-12-13T03:54:31.186Z,87.14
2022-12-13T03:56:58.797Z,87.07
2022-12-13T03:59:27.501Z,87.01
2022-12-13T04:01:55.106Z,87.01
2022-12-13T04:04:22.831Z,87.12
2022-12-13T04:06:50.504Z,86.90
2022-12-13T04:09:18.122Z,87.04
2022-12-13T04:12:04.459Z,87.03
2022-12-13T04:14:32.100Z,87.15
2022-12-13T04:17:00.118Z,87.30
2022-12-13T04:19:27.751Z,87.21
2022-12-13T04:21:55.378Z,87.26
2022-12-13T04:24:31.831Z,87.35
2022-12-13T04:27:02.193Z,87.26
2022-12-13T04:29:34.593Z,86.97
2022-12-13T04:32:04.756Z,86.93
2022-12-13T04:34:37.156Z,86.50
2022-12-13T04:37:05.789Z,86.25
2022-12-13T04:39:34.138Z,86.50
2022-12-13T04:42:03.009Z,86.44
2022-12-13T04:44:36.553Z,86.72
2022-12-13T04:47:05.347Z,86.94
2022-12-13T04:49:33.692Z,86.86
2022-12-13T04:52:02.333Z,87.23
2022-12-13T04:54:36.627Z,87.18
2022-12-13T04:57:11.258Z,87.00
2022-12-13T04:59:40.048Z,86.92
2022-12-13T05:02:08.789Z,87.06
2022-12-13T05:04:36.599Z,86.81
2022-12-13T05:07:04.396Z,86.72
2022-12-13T05:09:32.016Z,86.84
2022-12-13T05:12:01.786Z,86.95
2022-12-13T05:14:33.248Z,86.62
2022-12-13T05:17:01.660Z,86.83
2022-12-13T05:19:30.898Z,86.72
2022-12-13T05:22:01.521Z,86.69
2022-12-13T05:24:31.600Z,86.66
2022-12-13T05:26:59.907Z,86.26
2022-12-13T05:29:28.131Z,86.11
2022-12-13T05:31:56.033Z,86.30
2022-12-13T05:34:23.648Z,85.88
2022-12-13T05:36:51.491Z,85.97
2022-12-13T05:39:29.052Z,86.17
2022-12-13T05:42:01.872Z,86.13
2022-12-13T05:44:32.563Z,86.70
2022-12-13T05:47:01.816Z,86.76
2022-12-13T05:49:31.364Z,86.82
2022-12-13T05:51:59.282Z,87.16
2022-12-13T05:54:27.390Z,87.02
2022-12-13T05:56:56.622Z,86.50
2022-12-13T05:59:24.361Z,86.28
2022-12-13T06:01:52.193Z,86.49
2022-12-13T06:04:22.327Z,86.24
2022-12-13T06:06:52.187Z,86.08
2022-12-13T06:09:21.062Z,85.91
2022-12-13T06:11:49.427Z,86.13
2022-12-13T06:14:22.329Z,85.87
2022-12-13T06:16:53.817Z,86.13
2022-12-13T06:19:22.685Z,86.83
2022-12-13T06:21:51.257Z,86.20
2022-12-13T06:24:21.322Z,86.75
2022-12-13T06:26:50.621Z,86.58
2022-12-13T06:29:23.234Z,86.08
2022-12-13T06:31:54.018Z,85.93
2022-12-13T06:34:21.599Z,85.70
2022-12-13T06:36:49.216Z,85.53
2022-12-13T06:39:17.527Z,85.29
2022-12-13T06:41:45.207Z,85.36
2022-12-13T06:44:13.178Z,85.03
2022-12-13T06:46:41.113Z,85.22
2022-12-13T06:49:08.870Z,85.39
2022-12-13T06:51:36.508Z,85.48
2022-12-13T06:54:04.559Z,85.84
2022-12-13T06:56:32.724Z,86.01
2022-12-13T06:59:01.919Z,85.85
2022-12-13T07:01:37.639Z,86.30
2022-12-13T07:04:29.340Z,85.95
2022-12-13T07:06:54.439Z,85.83
2022-12-13T07:09:22.033Z,85.38
2022-12-13T07:11:52.274Z,84.99
2022-12-13T07:14:20.439Z,84.86
2022-12-13T07:16:48.041Z,84.50
2022-12-13T07:19:23.359Z,85.04
2022-12-13T07:21:52.256Z,85.03
2022-12-13T07:24:19.971Z,84.82
2022-12-13T07:26:47.686Z,84.77
2022-12-13T07:29:22.233Z,84.42
2022-12-13T07:31:50.558Z,84.79
2022-12-13T07:34:18.266Z,84.49
2022-12-13T07:36:45.988Z,84.69
2022-12-13T07:39:13.627Z,85.37
2022-12-13T07:41:41.213Z,85.20
2022-12-13T07:44:08.868Z,84.99
2022-12-13T07:46:36.557Z,85.09
2022-12-13T07:49:05.138Z,84.95
2022-12-13T07:51:35.251Z,85.01
2022-12-13T07:54:06.155Z,84.62
2022-12-13T07:56:35.213Z,84.56
2022-12-13T07:59:03.321Z,84.24
2022-12-13T08:01:35.167Z,83.95
2022-12-13T08:04:05.010Z,83.77
2022-12-13T08:06:38.025Z,84.43
2022-12-13T08:09:06.386Z,84.35
2022-12-13T08:11:34.519Z,84.17
2022-12-13T08:14:02.342Z,84.28
2022-12-13T08:16:30.562Z,84.43
2022-12-13T08:19:02.823Z,84.34
2022-12-13T08:21:57.453Z,84.27
2022-12-13T08:24:28.477Z,84.44
2022-12-13T08:27:02.436Z,84.43
2022-12-13T08:29:33.420Z,84.59
2022-12-13T08:32:10.831Z,84.58
2022-12-13T08:34:41.288Z,84.66
2022-12-13T08:37:09.398Z,84.39
2022-12-13T08:39:38.569Z,83.89
2022-12-13T08:42:18.261Z,83.20
2022-12-13T08:44:48.545Z,83.03
2022-12-13T08:47:23.097Z,83.28
2022-12-13T08:50:01.846Z,83.40
2022-12-13T08:52:39.912Z,83.32
2022-12-13T08:55:10.691Z,82.99
2022-12-13T08:57:39.295Z,83.32
2022-12-13T09:00:11.418Z,83.13
2022-12-13T09:02:39.283Z,83.44
2022-12-13T09:05:09.423Z,83.43
2022-12-13T09:07:37.216Z,83.38
2022-12-13T09:10:25.742Z,83.58
2022-12-13T09:13:01.627Z,83.41
2022-12-13T09:15:33.759Z,83.39
2022-12-13T09:18:04.289Z,83.28
2022-12-13T09:20:41.231Z,82.71
2022-12-13T09:23:14.134Z,82.47
2022-12-13T09:25:56.393Z,82.65
2022-12-13T09:28:37.018Z,82.56
2022-12-13T09:31:17.375Z,82.65
2022-12-13T09:33:46.105Z,81.99
2022-12-13T09:36:17.387Z,82.40
2022-12-13T09:38:45.180Z,82.30
2022-12-13T09:41:28.611Z,82.20
2022-12-13T09:44:03.281Z,82.47
2022-12-13T09:46:44.314Z,82.92
2022-12-13T09:49:22.813Z,82.89
2022-12-13T09:52:10.818Z,83.15
2022-12-13T09:54:47.702Z,83.38
2022-12-13T09:57:31.133Z,83.16
2022-12-13T10:00:07.308Z,82.92
2022-12-13T10:02:51.127Z,82.71
2022-12-13T10:05:34.554Z,82.54
2022-12-13T10:08:16.700Z,82.58
2022-12-13T10:10:44.999Z,82.18
2022-12-13T10:13:24.024Z,82.32
2022-12-13T10:15:57.420Z,82.03
2022-12-13T10:18:33.954Z,81.40
2022-12-13T10:21:05.064Z,81.88
2022-12-13T10:23:47.039Z,81.73
2022-12-13T10:26:24.460Z,81.48
2022-12-13T10:29:03.660Z,81.67
2022-12-13T10:31:40.621Z,81.29
2022-12-13T10:34:21.527Z,81.77
2022-12-13T10:36:49.407Z,81.68
2022-12-13T10:39:20.201Z,81.60
2022-12-13T10:41:48.018Z,81.61
2022-12-13T10:44:25.195Z,81.52
2022-12-13T10:47:17.140Z,81.46
2022-12-13T10:50:01.433Z,80.84
2022-12-13T10:52:33.014Z,80.87
2022-12-13T10:55:23.565Z,79.91
2022-12-13T10:57:58.013Z,80.46
2022-12-13T11:00:37.539Z,80.38
2022-12-13T11:03:06.284Z,80.54
2022-12-13T11:05:38.374Z,79.78
2022-12-13T11:08:26.811Z,79.85
2022-12-13T11:11:05.794Z,79.67
2022-12-13T11:13:38.420Z,79.48
2022-12-13T11:16:23.951Z,79.35
2022-12-13T11:18:55.785Z,79.21
2022-12-13T11:21:30.219Z,79.03
2022-12-13T11:24:02.437Z,78.80
2022-12-13T11:26:33.902Z,79.20
2022-12-13T11:29:27.052Z,78.64
2022-12-13T11:32:02.159Z,79.29
2022-12-13T11:34:49.941Z,79.45
2022-12-13T11:37:43.177Z,79.39
2022-12-13T11:40:24.215Z,79.81
2022-12-13T11:43:03.791Z,79.32
2022-12-13T11:45:38.883Z,79.50
2022-12-13T11:48:09.328Z,78.97
2022-12-13T11:50:47.916Z,79.45
2022-12-13T11:53:18.950Z,79.72
2022-12-13T11:55:56.284Z,80.18
2022-12-13T12:01:51.874Z,80.03
2022-12-13T12:04:46.275Z,81.04
2022-12-13T12:07:36.975Z,80.78
2022-12-13T12:10:24.791Z,81.44
2022-12-13T12:13:17.808Z,81.41
2022-12-13T12:15:55.232Z,81.67
2022-12-13T12:18:23.465Z,81.12
2022-12-13T12:21:07.696Z,80.85
2022-12-13T12:23:59.655Z,80.46
2022-12-13T12:26:43.200Z,80.59
2022-12-13T12:29:31.646Z,80.70
2022-12-13T12:32:38.175Z,80.49
2022-12-13T12:35:29.445Z,80.76
2022-12-13T12:38:36.222Z,80.87
2022-12-13T12:41:17.504Z,80.61
2022-12-13T12:43:54.801Z,81.27
2022-12-13T12:47:08.757Z,81.17
2022-12-13T12:50:10.888Z,81.43
2022-12-13T12:52:54.610Z,81.23
2022-12-13T12:55:50.046Z,81.45
2022-12-13T12:58:24.533Z,81.42
2022-12-13T13:01:00.874Z,81.47
2022-12-13T13:03:34.541Z,81.43
2022-12-13T13:06:12.622Z,81.65
2022-12-13T13:09:05.100Z,82.00
2022-12-13T13:11:43.015Z,82.18
2022-12-13T13:14:32.583Z,81.98
2022-12-13T13:17:21.301Z,81.64
2022-12-13T13:20:01.396Z,81.85
2022-12-13T13:22:43.349Z,81.73
2022-12-13T13:25:31.753Z,81.35
2022-12-13T13:28:22.082Z,81.19
2022-12-13T13:31:04.024Z,81.41
2022-12-13T13:33:57.957Z,81.48
2022-12-13T13:36:44.928Z,81.20
2022-12-13T13:39:17.871Z,81.31
2022-12-13T13:42:13.847Z,81.48
2022-12-13T13:44:54.318Z,81.84
2022-12-13T13:47:24.919Z,81.88
2022-12-13T13:50:02.834Z,82.08
2022-12-13T13:52:52.542Z,82.18
2022-12-13T13:55:35.537Z,82.27
2022-12-13T13:58:25.351Z,82.22
2022-12-13T14:01:22.909Z,82.04
2022-12-13T14:04:10.095Z,81.47
2022-12-13T14:07:01.838Z,81.42
2022-12-13T14:09:54.518Z,81.41
2022-12-13T14:12:51.742Z,81.44
2022-12-13T14:15:58.347Z,81.71
2022-12-13T14:18:31.771Z,81.59
2022-12-13T14:21:13.407Z,81.63
2022-12-13T14:23:43.771Z,81.81
2022-12-13T14:26:36.567Z,82.02
2022-12-13T14:29:12.804Z,82.05
2022-12-13T14:31:48.712Z,82.25
2022-12-13T14:34:24.094Z,82.42
2022-12-13T14:37:05.832Z,82.71
2022-12-13T14:39:34.698Z,83.16
2022-12-13T14:42:20.551Z,83.19
2022-12-13T14:44:48.180Z,82.94
2022-12-13T14:47:16.386Z,83.11
2022-12-13T14:49:50.622Z,83.13
2022-12-13T14:52:27.699Z,82.97
2022-12-13T14:54:59.327Z,82.81
2022-12-13T14:57:29.737Z,82.84
2022-12-13T14:59:59.505Z,82.85
2022-12-13T15:02:32.850Z,82.89
2022-12-13T15:05:03.896Z,82.91
2022-12-13T15:07:35.848Z,82.91
2022-12-13T15:10:25.881Z,82.84
2022-12-13T15:12:55.106Z,83.11
2022-12-13T15:15:37.412Z,83.42
2022-12-13T15:18:07.694Z,83.37
2022-12-13T15:20:41.664Z,83.47
2022-12-13T15:23:23.865Z,83.43
2022-12-13T15:26:10.236Z,83.68
2022-12-13T15:28:44.163Z,83.54
2022-12-13T15:31:13.282Z,83.72
2022-12-13T15:33:48.691Z,83.73
2022-12-13T15:36:27.420Z,83.23
2022-12-13T15:38:55.006Z,83.15
2022-12-13T15:41:36.773Z,83.13
2022-12-13T15:44:07.767Z,83.38
2022-12-13T15:46:38.032Z,83.26
2022-12-13T15:49:17.537Z,83.32
2022-12-13T15:52:01.380Z,83.36
2022-12-13T15:54:29.583Z,83.29
2022-12-13T15:56:59.918Z,83.25
2022-12-13T15:59:31.828Z,83.64
2022-12-13T16:02:01.022Z,83.74
2022-12-13T16:04:32.751Z,83.53
2022-12-13T16:07:01.351Z,83.70
2022-12-13T16:09:33.432Z,83.77
2022-12-13T16:12:04.541Z,84.06
2022-12-13T16:14:32.284Z,83.96
2022-12-13T16:17:11.104Z,84.12
2022-12-13T16:19:39.960Z,84.18
2022-12-13T16:22:08.478Z,83.94
2022-12-13T16:24:37.059Z,84.10
2022-12-13T16:27:08.427Z,84.18
2022-12-13T16:29:36.652Z,84.08
2022-12-13T16:32:08.940Z,84.04
2022-12-13T16:34:37.913Z,83.84
2022-12-13T16:37:08.870Z,83.84
2022-12-13T16:39:54.074Z,83.80
2022-12-13T16:42:25.864Z,83.60
2022-12-13T16:45:32.456Z,83.82
2022-12-13T16:47:49.302Z,83.84
2022-12-13T16:50:20.415Z,84.07
2022-12-13T16:52:48.933Z,84.30
2022-12-13T16:55:16.784Z,84.28
2022-12-13T16:57:56.578Z,84.78
2022-12-13T17:00:25.002Z,84.95
2022-12-13T17:02:54.548Z,85.15
2022-12-13T17:05:24.266Z,84.98
2022-12-13T17:07:52.134Z,84.66
2022-12-13T17:10:19.882Z,84.44
2022-12-13T17:12:47.702Z,84.39
2022-12-13T17:15:16.415Z,84.28
2022-12-13T17:17:45.750Z,84.17
2022-12-13T17:20:16.301Z,84.32
2022-12-13T17:22:45.220Z,84.10
2022-12-13T17:25:13.971Z,84.05
2022-12-13T17:27:41.978Z,84.19
2022-12-13T17:30:16.516Z,84.38
2022-12-13T17:32:44.644Z,84.51
2022-12-13T17:35:17.809Z,84.62
2022-12-13T17:37:46.357Z,84.74
2022-12-13T17:40:14.038Z,84.69
2022-12-13T17:42:41.675Z,84.99
2022-12-13T17:45:09.980Z,84.91
2022-12-13T17:47:39.811Z,84.99
2022-12-13T17:50:09.018Z,84.49
2022-12-13T17:52:38.923Z,84.54
2022-12-13T17:55:11.158Z,84.35
2022-12-13T17:57:41.323Z,84.17
2022-12-13T18:00:10.852Z,84.38
2022-12-13T18:02:41.684Z,84.42
2022-12-13T18:05:26.218Z,84.24
2022-12-13T18:07:54.110Z,84.25
2022-12-13T18:10:26.345Z,84.39
2022-12-13T18:12:57.578Z,84.83
2022-12-13T18:15:25.821Z,84.73
2022-12-13T18:18:12.695Z,85.11
2022-12-13T18:20:40.741Z,85.14
2022-12-13T18:23:08.521Z,85.44
2022-12-13T18:25:37.177Z,85.56
2022-12-13T18:28:05.640Z,85.27
2022-12-13T18:30:33.253Z,85.13
2022-12-13T18:33:00.929Z,85.20
2022-12-13T18:35:28.649Z,85.08
2022-12-13T18:37:56.390Z,84.94
2022-12-13T18:40:25.447Z,85.16
2022-12-13T18:42:53.221Z,85.00
2022-12-13T18:45:21.258Z,84.98
2022-12-13T18:47:48.993Z,85.27
2022-12-13T18:50:16.788Z,85.20
2022-12-13T18:52:45.130Z,85.27
2022-12-13T18:55:13.243Z,85.26
2022-12-13T18:57:40.999Z,85.31
2022-12-13T19:00:09.456Z,85.97
2022-12-13T19:02:37.289Z,85.90
2022-12-13T19:05:05.845Z,85.85
2022-12-13T19:07:33.738Z,86.00
2022-12-13T19:10:04.503Z,85.57
2022-12-13T19:12:32.176Z,85.57
2022-12-13T19:14:59.999Z,85.54
2022-12-13T19:17:28.632Z,85.45
2022-12-13T19:19:56.544Z,85.22
2022-12-13T19:22:24.298Z,85.64
2022-12-13T19:24:52.547Z,85.26
2022-12-13T19:27:20.641Z,85.91
2022-12-13T19:29:50.696Z,85.78
2022-12-13T19:32:19.102Z,85.23
2022-12-13T19:34:46.957Z,85.49
2022-12-13T19:37:14.742Z,85.42
2022-12-13T19:39:42.636Z,85.53
2022-12-13T19:42:10.779Z,85.60
2022-12-13T19:44:38.525Z,85.85
2022-12-13T19:47:15.363Z,85.44
2022-12-13T19:49:43.000Z,85.66
2022-12-13T19:52:10.705Z,85.54
2022-12-13T19:54:38.551Z,85.53
2022-12-13T19:57:07.523Z,85.13
2022-12-13T19:59:36.123Z,85.57
2022-12-13T20:02:05.632Z,85.62
2022-12-13T20:04:33.393Z,85.61
2022-12-13T20:07:01.912Z,85.94
2022-12-13T20:09:29.712Z,86.08
2022-12-13T20:11:57.581Z,86.18
2022-12-13T20:14:25.832Z,86.44
2022-12-13T20:16:53.482Z,86.30
2022-12-13T20:19:21.675Z,86.46
2022-12-13T20:21:54.983Z,86.66
2022-12-13T20:24:25.260Z,86.54
2022-12-13T20:26:54.642Z,86.73
2022-12-13T20:29:22.908Z,86.60
2022-12-13T20:31:54.534Z,86.47
2022-12-13T20:34:22.139Z,86.58
2022-12-13T20:36:50.175Z,86.43
2022-12-13T20:39:18.000Z,86.43
2022-12-13T20:41:46.000Z,86.41
2022-12-13T20:44:13.863Z,86.15
2022-12-13T20:46:44.669Z,86.34
2022-12-13T20:49:12.726Z,86.27
2022-12-13T20:51:41.672Z,86.31
2022-12-13T20:54:09.434Z,86.42
2022-12-13T20:56:39.263Z,86.37
2022-12-13T20:59:10.813Z,86.82
2022-12-13T21:01:43.389Z,86.86
2022-12-13T21:04:12.061Z,86.81
2022-12-13T21:06:41.685Z,86.70
2022-12-13T21:09:11.492Z,86.78
2022-12-13T21:11:44.802Z,86.75
2022-12-13T21:14:28.615Z,86.79
2022-12-13T21:17:01.642Z,86.75
2022-12-13T21:19:39.065Z,86.81
2022-12-13T21:22:08.257Z,86.73
2022-12-13T21:24:35.878Z,86.99
2022-12-13T21:27:04.542Z,86.85
2022-12-13T21:29:32.232Z,86.74
2022-12-13T21:32:00.035Z,86.92
2022-12-13T21:34:27.979Z,86.77
2022-12-13T21:36:55.624Z,86.67
2022-12-13T21:39:28.644Z,86.63
2022-12-13T21:41:57.663Z,86.74
2022-12-13T21:44:25.293Z,86.47
2022-12-13T21:49:41.252Z,86.88
2022-12-13T21:52:09.062Z,86.72
2022-12-13T21:54:36.686Z,86.84
2022-12-13T21:57:22.982Z,86.98
2022-12-13T21:59:50.627Z,87.05
2022-12-13T22:02:19.357Z,87.19
2022-12-13T22:04:53.051Z,87.04
2022-12-13T22:07:20.631Z,87.05
2022-12-13T22:09:49.170Z,86.78
2022-12-13T22:12:25.710Z,86.88
2022-12-13T22:14:53.737Z,86.85
2022-12-13T22:17:26.931Z,86.95
2022-12-13T22:19:58.886Z,86.95
2022-12-13T22:22:26.615Z,87.03
2022-12-13T22:24:54.319Z,86.90
2022-12-13T22:27:26.125Z,87.34
2022-12-13T22:29:58.667Z,87.33
2022-12-13T22:32:30.174Z,87.53
2022-12-13T22:34:58.016Z,87.75
2022-12-13T22:37:26.323Z,87.72
2022-12-13T22:39:54.278Z,87.73
2022-12-13T22:42:22.370Z,87.86
2022-12-13T22:44:50.878Z,87.65
2022-12-13T22:47:18.545Z,87.86
2022-12-13T22:49:48.553Z,87.84
2022-12-13T22:52:17.214Z,88.07
2022-12-13T22:54:44.866Z,88.03
2022-12-13T22:57:12.464Z,88.07
2022-12-13T22:59:40.201Z,87.63
2022-12-13T23:02:09.651Z,87.04
2022-12-13T23:04:38.000Z,86.53
2022-12-13T23:07:06.049Z,86.35
2022-12-13T23:09:33.730Z,85.99
2022-12-13T23:12:20.154Z,86.20
2022-12-13T23:14:47.906Z,85.94
2022-12-13T23:17:15.552Z,86.03
2022-12-13T23:19:50.434Z,85.86
2022-12-13T23:22:22.896Z,85.78
2022-12-13T23:24:52.068Z,86.17
2022-12-13T23:27:23.803Z,86.52
2022-12-13T23:29:51.529Z,86.84
2022-12-13T23:32:19.282Z,87.26
2022-12-13T23:34:47.007Z,87.64
2022-12-13T23:37:14.637Z,87.36
2022-12-13T23:39:42.310Z,87.50
2022-12-13T23:42:09.909Z,87.41
2022-12-13T23:44:37.562Z,87.38
2022-12-13T23:47:05.219Z,87.11
2022-12-13T23:49:32.802Z,86.92
2022-12-13T23:52:00.438Z,87.22
2022-12-13T23:54:28.057Z,86.85
2022-12-13T23:56:55.955Z,86.73
2022-12-13T23:59:25.811Z,86.61
